sensor_id;sensor_type;location;lat;lon;timestamp;temperature;humidity
43987;DHT22;29650;47.378;8.300;2023-06-04T00:01:08;18.20;65.00
43987;DHT22;29650;47.378;8.300;2023-06-04T00:03:35;18.30;65.40
43987;DHT22;29650;47.378;8.300;2023-06-04T00:06:02;18.20;64.80
43987;DHT22;29650;47.378;8.300;2023-06-04T00:08:38;18.00;65.30
43987;DHT22;29650;47.378;8.300;2023-06-04T00:11:05;18.20;65.60
43987;DHT22;29650;47.378;8.300;2023-06-04T00:13:34;18.20;65.70
43987;DHT22;29650;47.378;8.300;2023-06-04T00:16:01;18.30;65.30
43987;DHT22;29650;47.378;8.300;2023-06-04T00:18:28;18.10;65.20
43987;DHT22;29650;47.378;8.300;2023-06-04T00:21:03;17.70;66.10
43987;DHT22;29650;47.378;8.300;2023-06-04T00:23:30;17.80;67.60
43987;DHT22;29650;47.378;8.300;2023-06-04T00:25:57;17.80;68.30
43987;DHT22;29650;47.378;8.300;2023-06-04T00:28:24;17.90;67.30
43987;DHT22;29650;47.378;8.300;2023-06-04T00:31:04;17.70;66.90
43987;DHT22;29650;47.378;8.300;2023-06-04T00:33:31;17.70;67.20
43987;DHT22;29650;47.378;8.300;2023-06-04T00:36:00;17.80;67.00
43987;DHT22;29650;47.378;8.300;2023-06-04T00:38:28;17.70;67.00
43987;DHT22;29650;47.378;8.300;2023-06-04T00:40:55;17.70;67.50
43987;DHT22;29650;47.378;8.300;2023-06-04T00:43:22;17.70;68.00
43987;DHT22;29650;47.378;8.300;2023-06-04T00:46:06;17.60;67.40
43987;DHT22;29650;47.378;8.300;2023-06-04T00:48:33;17.60;68.10
43987;DHT22;29650;47.378;8.300;2023-06-04T00:51:02;17.60;70.80
43987;DHT22;29650;47.378;8.300;2023-06-04T00:53:30;17.30;74.10
43987;DHT22;29650;47.378;8.300;2023-06-04T00:55:57;17.30;73.30
43987;DHT22;29650;47.378;8.300;2023-06-04T00:58:24;17.40;73.90
43987;DHT22;29650;47.378;8.300;2023-06-04T01:00:53;17.30;72.80
43987;DHT22;29650;47.378;8.300;2023-06-04T01:03:25;17.20;74.20
43987;DHT22;29650;47.378;8.300;2023-06-04T01:06:14;17.40;74.10
43987;DHT22;29650;47.378;8.300;2023-06-04T01:08:47;17.10;75.20
43987;DHT22;29650;47.378;8.300;2023-06-04T01:11:15;16.70;74.80
43987;DHT22;29650;47.378;8.300;2023-06-04T01:13:44;17.20;73.50
43987;DHT22;29650;47.378;8.300;2023-06-04T01:16:15;17.00;74.80
43987;DHT22;29650;47.378;8.300;2023-06-04T01:18:44;17.10;75.90
43987;DHT22;29650;47.378;8.300;2023-06-04T01:21:13;17.10;75.40
43987;DHT22;29650;47.378;8.300;2023-06-04T01:23:47;17.10;74.50
43987;DHT22;29650;47.378;8.300;2023-06-04T01:26:24;16.80;75.20
43987;DHT22;29650;47.378;8.300;2023-06-04T01:28:52;16.90;75.40
43987;DHT22;29650;47.378;8.300;2023-06-04T01:31:20;17.00;75.20
43987;DHT22;29650;47.378;8.300;2023-06-04T01:33:51;16.70;76.20
43987;DHT22;29650;47.378;8.300;2023-06-04T01:36:18;16.90;76.60
43987;DHT22;29650;47.378;8.300;2023-06-04T01:38:45;17.00;76.30
43987;DHT22;29650;47.378;8.300;2023-06-04T01:41:21;16.70;77.30
43987;DHT22;29650;47.378;8.300;2023-06-04T01:43:49;16.70;77.80
43987;DHT22;29650;47.378;8.300;2023-06-04T01:46:16;16.70;78.50
43987;DHT22;29650;47.378;8.300;2023-06-04T01:48:43;16.70;78.00
43987;DHT22;29650;47.378;8.300;2023-06-04T01:51:11;16.70;78.40
43987;DHT22;29650;47.378;8.300;2023-06-04T01:53:38;16.80;77.50
43987;DHT22;29650;47.378;8.300;2023-06-04T01:56:06;16.80;77.50
43987;DHT22;29650;47.378;8.300;2023-06-04T01:58:34;16.80;77.60
43987;DHT22;29650;47.378;8.300;2023-06-04T02:01:03;16.80;77.70
43987;DHT22;29650;47.378;8.300;2023-06-04T02:03:31;16.70;77.90
43987;DHT22;29650;47.378;8.300;2023-06-04T02:06:04;16.80;77.90
43987;DHT22;29650;47.378;8.300;2023-06-04T02:08:34;16.70;78.10
43987;DHT22;29650;47.378;8.300;2023-06-04T02:11:01;16.70;78.60
43987;DHT22;29650;47.378;8.300;2023-06-04T02:13:28;16.70;78.60
43987;DHT22;29650;47.378;8.300;2023-06-04T02:15:55;16.60;79.60
43987;DHT22;29650;47.378;8.300;2023-06-04T02:18:22;16.50;80.10
43987;DHT22;29650;47.378;8.300;2023-06-04T02:20:50;16.40;81.30
43987;DHT22;29650;47.378;8.300;2023-06-04T02:23:18;15.40;81.40
43987;DHT22;29650;47.378;8.300;2023-06-04T02:25:48;16.40;82.70
43987;DHT22;29650;47.378;8.300;2023-06-04T02:28:17;16.30;82.80
43987;DHT22;29650;47.378;8.300;2023-06-04T02:30:44;16.40;83.10
43987;DHT22;29650;47.378;8.300;2023-06-04T02:33:13;16.40;82.50
43987;DHT22;29650;47.378;8.300;2023-06-04T02:35:45;16.40;83.70
43987;DHT22;29650;47.378;8.300;2023-06-04T02:38:12;16.30;82.90
43987;DHT22;29650;47.378;8.300;2023-06-04T02:40:43;16.30;83.30
43987;DHT22;29650;47.378;8.300;2023-06-04T02:43:12;16.30;82.80
43987;DHT22;29650;47.378;8.300;2023-06-04T02:45:39;16.30;83.50
43987;DHT22;29650;47.378;8.300;2023-06-04T02:48:06;16.30;83.70
43987;DHT22;29650;47.378;8.300;2023-06-04T02:50:33;16.40;83.50
43987;DHT22;29650;47.378;8.300;2023-06-04T02:53:00;16.20;83.80
43987;DHT22;29650;47.378;8.300;2023-06-04T02:55:27;16.10;85.00
43987;DHT22;29650;47.378;8.300;2023-06-04T02:58:01;16.30;84.70
43987;DHT22;29650;47.378;8.300;2023-06-04T03:00:30;16.00;83.80
43987;DHT22;29650;47.378;8.300;2023-06-04T03:02:57;16.00;85.70
43987;DHT22;29650;47.378;8.300;2023-06-04T03:05:27;15.90;85.70
43987;DHT22;29650;47.378;8.300;2023-06-04T03:07:56;16.30;86.90
43987;DHT22;29650;47.378;8.300;2023-06-04T03:10:24;16.00;86.80
43987;DHT22;29650;47.378;8.300;2023-06-04T03:12:51;15.90;86.90
43987;DHT22;29650;47.378;8.300;2023-06-04T03:15:18;15.80;87.10
43987;DHT22;29650;47.378;8.300;2023-06-04T03:17:47;15.80;86.90
43987;DHT22;29650;47.378;8.300;2023-06-04T03:20:14;15.90;86.40
43987;DHT22;29650;47.378;8.300;2023-06-04T03:22:41;16.00;86.30
43987;DHT22;29650;47.378;8.300;2023-06-04T03:25:22;16.00;86.80
43987;DHT22;29650;47.378;8.300;2023-06-04T03:27:49;16.00;87.00
43987;DHT22;29650;47.378;8.300;2023-06-04T03:30:16;15.90;88.30
43987;DHT22;29650;47.378;8.300;2023-06-04T03:32:43;16.10;87.70
43987;DHT22;29650;47.378;8.300;2023-06-04T03:35:12;15.80;90.90
43987;DHT22;29650;47.378;8.300;2023-06-04T03:37:39;15.80;91.60
43987;DHT22;29650;47.378;8.300;2023-06-04T03:40:07;15.80;92.70
43987;DHT22;29650;47.378;8.300;2023-06-04T03:42:34;15.80;93.30
43987;DHT22;29650;47.378;8.300;2023-06-04T03:45:06;15.70;93.80
43987;DHT22;29650;47.378;8.300;2023-06-04T03:47:33;15.90;93.10
43987;DHT22;29650;47.378;8.300;2023-06-04T03:50:01;15.80;94.30
43987;DHT22;29650;47.378;8.300;2023-06-04T03:52:29;15.80;94.40
43987;DHT22;29650;47.378;8.300;2023-06-04T03:54:56;16.00;93.60
43987;DHT22;29650;47.378;8.300;2023-06-04T03:57:23;16.00;94.10
43987;DHT22;29650;47.378;8.300;2023-06-04T03:59:50;16.00;94.30
43987;DHT22;29650;47.378;8.300;2023-06-04T04:02:17;16.00;94.50
43987;DHT22;29650;47.378;8.300;2023-06-04T04:04:44;16.00;94.40
43987;DHT22;29650;47.378;8.300;2023-06-04T04:07:11;16.10;94.50
43987;DHT22;29650;47.378;8.300;2023-06-04T04:09:39;16.20;93.40
43987;DHT22;29650;47.378;8.300;2023-06-04T04:12:07;16.20;93.40
43987;DHT22;29650;47.378;8.300;2023-06-04T04:14:34;16.20;94.10
43987;DHT22;29650;47.378;8.300;2023-06-04T04:17:01;16.30;93.70
43987;DHT22;29650;47.378;8.300;2023-06-04T04:19:28;16.30;93.90
43987;DHT22;29650;47.378;8.300;2023-06-04T04:21:54;16.20;94.50
43987;DHT22;29650;47.378;8.300;2023-06-04T04:24:25;16.40;94.20
43987;DHT22;29650;47.378;8.300;2023-06-04T04:26:54;16.40;94.10
43987;DHT22;29650;47.378;8.300;2023-06-04T04:29:21;16.50;95.00
43987;DHT22;29650;47.378;8.300;2023-06-04T04:31:50;16.50;95.10
43987;DHT22;29650;47.378;8.300;2023-06-04T04:34:17;16.40;94.30
43987;DHT22;29650;47.378;8.300;2023-06-04T04:36:47;16.30;94.70
43987;DHT22;29650;47.378;8.300;2023-06-04T04:39:18;16.20;94.40
43987;DHT22;29650;47.378;8.300;2023-06-04T04:41:46;16.40;94.80
43987;DHT22;29650;47.378;8.300;2023-06-04T04:44:14;16.60;94.70
43987;DHT22;29650;47.378;8.300;2023-06-04T04:46:41;16.60;95.90
43987;DHT22;29650;47.378;8.300;2023-06-04T04:49:08;16.60;96.00
43987;DHT22;29650;47.378;8.300;2023-06-04T04:51:35;16.40;97.20
43987;DHT22;29650;47.378;8.300;2023-06-04T04:54:02;16.50;99.00
43987;DHT22;29650;47.378;8.300;2023-06-04T04:56:29;16.60;99.80
43987;DHT22;29650;47.378;8.300;2023-06-04T04:58:56;16.40;99.90
43987;DHT22;29650;47.378;8.300;2023-06-04T05:01:24;16.40;99.90
43987;DHT22;29650;47.378;8.300;2023-06-04T05:03:51;16.30;99.90
43987;DHT22;29650;47.378;8.300;2023-06-04T05:06:18;16.30;99.90
43987;DHT22;29650;47.378;8.300;2023-06-04T05:08:45;16.40;99.90
43987;DHT22;29650;47.378;8.300;2023-06-04T05:11:12;16.30;99.90
43987;DHT22;29650;47.378;8.300;2023-06-04T05:13:39;16.50;99.90
43987;DHT22;29650;47.378;8.300;2023-06-04T05:16:07;16.50;99.90
43987;DHT22;29650;47.378;8.300;2023-06-04T05:18:38;16.50;99.90
43987;DHT22;29650;47.378;8.300;2023-06-04T05:21:07;16.50;99.90
43987;DHT22;29650;47.378;8.300;2023-06-04T05:23:34;16.40;99.90
43987;DHT22;29650;47.378;8.300;2023-06-04T05:26:02;16.50;99.90
43987;DHT22;29650;47.378;8.300;2023-06-04T05:28:30;16.60;99.90
43987;DHT22;29650;47.378;8.300;2023-06-04T05:30:58;16.70;99.90
43987;DHT22;29650;47.378;8.300;2023-06-04T05:33:25;16.70;99.90
43987;DHT22;29650;47.378;8.300;2023-06-04T05:35:54;16.80;99.90
43987;DHT22;29650;47.378;8.300;2023-06-04T05:38:23;15.90;99.90
43987;DHT22;29650;47.378;8.300;2023-06-04T05:40:53;16.70;99.90
43987;DHT22;29650;47.378;8.300;2023-06-04T05:43:20;16.50;99.90
43987;DHT22;29650;47.378;8.300;2023-06-04T05:45:47;16.60;99.90
43987;DHT22;29650;47.378;8.300;2023-06-04T05:48:14;16.80;99.90
43987;DHT22;29650;47.378;8.300;2023-06-04T05:50:41;16.80;99.90
43987;DHT22;29650;47.378;8.300;2023-06-04T05:53:09;17.00;99.90
43987;DHT22;29650;47.378;8.300;2023-06-04T05:55:36;16.80;99.90
43987;DHT22;29650;47.378;8.300;2023-06-04T05:58:03;16.70;99.90
43987;DHT22;29650;47.378;8.300;2023-06-04T06:00:30;16.60;99.90
43987;DHT22;29650;47.378;8.300;2023-06-04T06:02:57;16.50;99.90
43987;DHT22;29650;47.378;8.300;2023-06-04T06:05:24;16.60;99.90
43987;DHT22;29650;47.378;8.300;2023-06-04T06:07:51;16.60;99.90
43987;DHT22;29650;47.378;8.300;2023-06-04T06:10:19;16.80;99.90
43987;DHT22;29650;47.378;8.300;2023-06-04T06:12:47;16.90;99.90
43987;DHT22;29650;47.378;8.300;2023-06-04T06:15:14;17.10;99.90
43987;DHT22;29650;47.378;8.300;2023-06-04T06:17:41;17.10;99.90
43987;DHT22;29650;47.378;8.300;2023-06-04T06:20:09;17.20;99.90
43987;DHT22;29650;47.378;8.300;2023-06-04T06:22:36;17.30;99.80
43987;DHT22;29650;47.378;8.300;2023-06-04T06:25:03;17.30;99.90
43987;DHT22;29650;47.378;8.300;2023-06-04T06:27:32;17.30;99.20
43987;DHT22;29650;47.378;8.300;2023-06-04T06:29:59;17.20;98.70
43987;DHT22;29650;47.378;8.300;2023-06-04T06:32:26;17.20;99.00
43987;DHT22;29650;47.378;8.300;2023-06-04T06:34:53;17.40;97.90
43987;DHT22;29650;47.378;8.300;2023-06-04T06:37:21;17.40;96.50
43987;DHT22;29650;47.378;8.300;2023-06-04T06:39:48;17.20;96.30
43987;DHT22;29650;47.378;8.300;2023-06-04T06:42:15;17.00;94.70
43987;DHT22;29650;47.378;8.300;2023-06-04T06:44:44;17.00;95.50
43987;DHT22;29650;47.378;8.300;2023-06-04T06:47:11;17.10;95.20
43987;DHT22;29650;47.378;8.300;2023-06-04T06:49:39;17.20;94.80
43987;DHT22;29650;47.378;8.300;2023-06-04T06:52:06;17.20;95.10
43987;DHT22;29650;47.378;8.300;2023-06-04T06:54:33;17.10;96.00
43987;DHT22;29650;47.378;8.300;2023-06-04T06:57:00;17.20;95.60
43987;DHT22;29650;47.378;8.300;2023-06-04T06:59:28;17.20;95.70
43987;DHT22;29650;47.378;8.300;2023-06-04T07:01:56;17.20;95.10
43987;DHT22;29650;47.378;8.300;2023-06-04T07:04:23;17.30;94.00
43987;DHT22;29650;47.378;8.300;2023-06-04T07:06:50;17.40;93.70
43987;DHT22;29650;47.378;8.300;2023-06-04T07:09:17;17.40;93.60
43987;DHT22;29650;47.378;8.300;2023-06-04T07:11:44;17.50;93.40
43987;DHT22;29650;47.378;8.300;2023-06-04T07:14:11;17.40;94.20
43987;DHT22;29650;47.378;8.300;2023-06-04T07:16:38;17.40;94.40
43987;DHT22;29650;47.378;8.300;2023-06-04T07:19:06;17.40;95.80
43987;DHT22;29650;47.378;8.300;2023-06-04T07:21:33;17.50;95.40
43987;DHT22;29650;47.378;8.300;2023-06-04T07:24:00;17.60;95.50
43987;DHT22;29650;47.378;8.300;2023-06-04T07:26:27;17.50;96.40
43987;DHT22;29650;47.378;8.300;2023-06-04T07:28:56;17.50;99.50
43987;DHT22;29650;47.378;8.300;2023-06-04T07:31:23;17.60;99.50
43987;DHT22;29650;47.378;8.300;2023-06-04T07:33:50;17.70;99.90
43987;DHT22;29650;47.378;8.300;2023-06-04T07:36:18;17.70;99.90
43987;DHT22;29650;47.378;8.300;2023-06-04T07:38:46;17.70;99.90
43987;DHT22;29650;47.378;8.300;2023-06-04T07:41:13;17.70;99.90
43987;DHT22;29650;47.378;8.300;2023-06-04T07:43:39;17.80;99.90
43987;DHT22;29650;47.378;8.300;2023-06-04T07:46:06;17.80;99.90
43987;DHT22;29650;47.378;8.300;2023-06-04T07:48:35;17.90;99.90
43987;DHT22;29650;47.378;8.300;2023-06-04T07:51:02;18.00;99.30
43987;DHT22;29650;47.378;8.300;2023-06-04T07:53:31;17.90;95.60
43987;DHT22;29650;47.378;8.300;2023-06-04T07:55:58;18.40;94.60
43987;DHT22;29650;47.378;8.300;2023-06-04T07:58:25;18.80;94.10
43987;DHT22;29650;47.378;8.300;2023-06-04T08:00:52;18.70;87.80
43987;DHT22;29650;47.378;8.300;2023-06-04T08:03:19;18.70;84.80
43987;DHT22;29650;47.378;8.300;2023-06-04T08:05:46;19.00;81.90
43987;DHT22;29650;47.378;8.300;2023-06-04T08:08:13;19.20;77.60
43987;DHT22;29650;47.378;8.300;2023-06-04T08:10:42;19.60;75.50
43987;DHT22;29650;47.378;8.300;2023-06-04T08:13:09;19.80;76.00
43987;DHT22;29650;47.378;8.300;2023-06-04T08:15:36;20.10;73.50
43987;DHT22;29650;47.378;8.300;2023-06-04T08:18:03;20.00;72.70
43987;DHT22;29650;47.378;8.300;2023-06-04T08:20:30;20.30;71.20
43987;DHT22;29650;47.378;8.300;2023-06-04T08:22:57;20.00;69.50
43987;DHT22;29650;47.378;8.300;2023-06-04T08:25:24;19.90;70.70
43987;DHT22;29650;47.378;8.300;2023-06-04T08:27:52;19.80;70.80
43987;DHT22;29650;47.378;8.300;2023-06-04T08:30:19;19.80;72.80
43987;DHT22;29650;47.378;8.300;2023-06-04T08:32:46;19.80;72.20
43987;DHT22;29650;47.378;8.300;2023-06-04T08:35:14;19.80;73.30
43987;DHT22;29650;47.378;8.300;2023-06-04T08:37:41;19.70;72.00
43987;DHT22;29650;47.378;8.300;2023-06-04T08:40:09;20.00;70.00
43987;DHT22;29650;47.378;8.300;2023-06-04T08:42:40;19.50;72.70
43987;DHT22;29650;47.378;8.300;2023-06-04T08:45:11;19.50;72.10
43987;DHT22;29650;47.378;8.300;2023-06-04T08:47:40;19.60;74.20
43987;DHT22;29650;47.378;8.300;2023-06-04T08:50:10;18.80;71.60
43987;DHT22;29650;47.378;8.300;2023-06-04T08:52:38;19.80;71.70
43987;DHT22;29650;47.378;8.300;2023-06-04T08:55:06;19.50;70.30
43987;DHT22;29650;47.378;8.300;2023-06-04T08:57:35;19.60;71.40
43987;DHT22;29650;47.378;8.300;2023-06-04T09:00:03;19.90;70.00
43987;DHT22;29650;47.378;8.300;2023-06-04T09:02:35;20.10;68.20
43987;DHT22;29650;47.378;8.300;2023-06-04T09:05:04;20.30;67.30
43987;DHT22;29650;47.378;8.300;2023-06-04T09:07:35;20.20;66.10
43987;DHT22;29650;47.378;8.300;2023-06-04T09:10:05;20.10;67.80
43987;DHT22;29650;47.378;8.300;2023-06-04T09:12:36;20.40;65.90
43987;DHT22;29650;47.378;8.300;2023-06-04T09:15:03;20.30;65.50
43987;DHT22;29650;47.378;8.300;2023-06-04T09:17:30;20.20;69.00
43987;DHT22;29650;47.378;8.300;2023-06-04T09:19:59;20.10;68.30
43987;DHT22;29650;47.378;8.300;2023-06-04T09:22:32;20.10;69.90
43987;DHT22;29650;47.378;8.300;2023-06-04T09:24:59;19.70;71.10
43987;DHT22;29650;47.378;8.300;2023-06-04T09:27:26;19.80;72.50
43987;DHT22;29650;47.378;8.300;2023-06-04T09:29:55;19.50;72.10
43987;DHT22;29650;47.378;8.300;2023-06-04T09:32:22;19.80;72.10
43987;DHT22;29650;47.378;8.300;2023-06-04T09:34:49;20.10;70.20
43987;DHT22;29650;47.378;8.300;2023-06-04T09:37:17;20.20;69.40
43987;DHT22;29650;47.378;8.300;2023-06-04T09:39:52;20.00;69.30
43987;DHT22;29650;47.378;8.300;2023-06-04T09:42:20;19.80;69.20
43987;DHT22;29650;47.378;8.300;2023-06-04T09:44:47;19.70;69.40
43987;DHT22;29650;47.378;8.300;2023-06-04T09:47:14;19.50;70.70
43987;DHT22;29650;47.378;8.300;2023-06-04T09:49:42;20.10;71.70
43987;DHT22;29650;47.378;8.300;2023-06-04T09:52:10;20.20;69.60
43987;DHT22;29650;47.378;8.300;2023-06-04T09:54:40;20.20;68.40
43987;DHT22;29650;47.378;8.300;2023-06-04T09:57:14;20.20;70.70
43987;DHT22;29650;47.378;8.300;2023-06-04T09:59:43;20.40;68.10
43987;DHT22;29650;47.378;8.300;2023-06-04T10:02:12;20.20;67.90
43987;DHT22;29650;47.378;8.300;2023-06-04T10:04:41;20.20;67.40
43987;DHT22;29650;47.378;8.300;2023-06-04T10:07:09;20.30;67.30
43987;DHT22;29650;47.378;8.300;2023-06-04T10:09:39;20.20;68.00
43987;DHT22;29650;47.378;8.300;2023-06-04T10:12:13;20.00;67.90
43987;DHT22;29650;47.378;8.300;2023-06-04T10:14:44;20.10;69.30
43987;DHT22;29650;47.378;8.300;2023-06-04T10:17:12;20.00;67.50
43987;DHT22;29650;47.378;8.300;2023-06-04T10:19:43;19.90;67.50
43987;DHT22;29650;47.378;8.300;2023-06-04T10:22:11;19.90;70.00
43987;DHT22;29650;47.378;8.300;2023-06-04T10:24:39;20.10;71.70
43987;DHT22;29650;47.378;8.300;2023-06-04T10:27:07;20.40;68.20
43987;DHT22;29650;47.378;8.300;2023-06-04T10:29:36;20.40;68.80
43987;DHT22;29650;47.378;8.300;2023-06-04T10:32:04;20.60;69.00
43987;DHT22;29650;47.378;8.300;2023-06-04T10:34:31;20.90;64.60
43987;DHT22;29650;47.378;8.300;2023-06-04T10:36:58;21.30;63.50
43987;DHT22;29650;47.378;8.300;2023-06-04T10:39:25;21.40;59.00
43987;DHT22;29650;47.378;8.300;2023-06-04T10:42:02;21.20;61.10
43987;DHT22;29650;47.378;8.300;2023-06-04T10:44:29;21.40;61.00
43987;DHT22;29650;47.378;8.300;2023-06-04T10:46:57;21.40;60.00
43987;DHT22;29650;47.378;8.300;2023-06-04T10:49:27;21.50;57.30
43987;DHT22;29650;47.378;8.300;2023-06-04T10:51:54;21.50;60.10
43987;DHT22;29650;47.378;8.300;2023-06-04T10:54:23;21.50;56.40
43987;DHT22;29650;47.378;8.300;2023-06-04T10:56:51;21.60;55.10
43987;DHT22;29650;47.378;8.300;2023-06-04T10:59:20;21.50;54.10
43987;DHT22;29650;47.378;8.300;2023-06-04T11:01:48;21.80;54.10
43987;DHT22;29650;47.378;8.300;2023-06-04T11:04:19;21.90;51.90
43987;DHT22;29650;47.378;8.300;2023-06-04T11:06:47;21.80;53.40
43987;DHT22;29650;47.378;8.300;2023-06-04T11:09:16;21.80;53.00
43987;DHT22;29650;47.378;8.300;2023-06-04T11:11:44;21.70;53.90
43987;DHT22;29650;47.378;8.300;2023-06-04T11:14:23;22.50;51.90
43987;DHT22;29650;47.378;8.300;2023-06-04T11:16:50;23.00;51.30
43987;DHT22;29650;47.378;8.300;2023-06-04T11:19:17;23.30;49.70
43987;DHT22;29650;47.378;8.300;2023-06-04T11:21:44;23.20;46.40
43987;DHT22;29650;47.378;8.300;2023-06-04T11:24:12;23.20;46.70
43987;DHT22;29650;47.378;8.300;2023-06-04T11:26:39;23.40;46.60
43987;DHT22;29650;47.378;8.300;2023-06-04T11:29:07;23.30;46.10
43987;DHT22;29650;47.378;8.300;2023-06-04T11:31:42;23.70;44.00
43987;DHT22;29650;47.378;8.300;2023-06-04T11:34:10;23.30;43.00
43987;DHT22;29650;47.378;8.300;2023-06-04T11:36:38;23.80;42.90
43987;DHT22;29650;47.378;8.300;2023-06-04T11:39:05;24.00;41.20
43987;DHT22;29650;47.378;8.300;2023-06-04T11:41:33;24.30;34.20
43987;DHT22;29650;47.378;8.300;2023-06-04T11:44:04;24.20;31.10
43987;DHT22;29650;47.378;8.300;2023-06-04T11:46:32;24.50;31.20
43987;DHT22;29650;47.378;8.300;2023-06-04T11:49:02;24.40;30.10
43987;DHT22;29650;47.378;8.300;2023-06-04T11:51:30;24.30;31.00
43987;DHT22;29650;47.378;8.300;2023-06-04T11:53:57;24.70;30.50
43987;DHT22;29650;47.378;8.300;2023-06-04T11:56:25;25.20;27.90
43987;DHT22;29650;47.378;8.300;2023-06-04T11:58:54;25.00;27.00
43987;DHT22;29650;47.378;8.300;2023-06-04T12:01:21;24.90;26.50
43987;DHT22;29650;47.378;8.300;2023-06-04T12:03:49;25.00;27.60
43987;DHT22;29650;47.378;8.300;2023-06-04T12:06:19;25.20;28.30
43987;DHT22;29650;47.378;8.300;2023-06-04T12:08:48;24.90;28.20
43987;DHT22;29650;47.378;8.300;2023-06-04T12:11:25;25.40;29.10
43987;DHT22;29650;47.378;8.300;2023-06-04T12:13:54;25.20;29.90
43987;DHT22;29650;47.378;8.300;2023-06-04T12:16:21;25.70;29.90
43987;DHT22;29650;47.378;8.300;2023-06-04T12:18:48;25.60;29.60
43987;DHT22;29650;47.378;8.300;2023-06-04T12:21:24;25.60;29.80
43987;DHT22;29650;47.378;8.300;2023-06-04T12:24:06;25.90;30.70
43987;DHT22;29650;47.378;8.300;2023-06-04T12:26:33;25.90;29.80
43987;DHT22;29650;47.378;8.300;2023-06-04T12:29:07;25.20;29.40
43987;DHT22;29650;47.378;8.300;2023-06-04T12:31:36;25.60;31.00
43987;DHT22;29650;47.378;8.300;2023-06-04T12:34:02;25.50;29.30
43987;DHT22;29650;47.378;8.300;2023-06-04T12:36:31;25.70;28.80
43987;DHT22;29650;47.378;8.300;2023-06-04T12:39:00;26.00;28.90
43987;DHT22;29650;47.378;8.300;2023-06-04T12:41:27;25.90;28.70
43987;DHT22;29650;47.378;8.300;2023-06-04T12:43:55;26.20;28.00
43987;DHT22;29650;47.378;8.300;2023-06-04T12:46:23;26.30;27.30
43987;DHT22;29650;47.378;8.300;2023-06-04T12:48:51;26.40;28.40
43987;DHT22;29650;47.378;8.300;2023-06-04T12:51:18;26.30;27.90
43987;DHT22;29650;47.378;8.300;2023-06-04T12:53:47;26.30;28.00
43987;DHT22;29650;47.378;8.300;2023-06-04T12:56:15;25.90;28.10
43987;DHT22;29650;47.378;8.300;2023-06-04T12:58:41;25.90;28.00
43987;DHT22;29650;47.378;8.300;2023-06-04T13:01:09;25.80;27.40
43987;DHT22;29650;47.378;8.300;2023-06-04T13:03:37;26.00;28.00
43987;DHT22;29650;47.378;8.300;2023-06-04T13:06:04;25.90;25.80
43987;DHT22;29650;47.378;8.300;2023-06-04T13:08:31;25.80;26.40
43987;DHT22;29650;47.378;8.300;2023-06-04T13:11:00;26.40;25.10
43987;DHT22;29650;47.378;8.300;2023-06-04T13:13:27;26.50;24.80
43987;DHT22;29650;47.378;8.300;2023-06-04T13:15:55;27.00;26.90
43987;DHT22;29650;47.378;8.300;2023-06-04T13:18:22;27.10;24.20
43987;DHT22;29650;47.378;8.300;2023-06-04T13:20:49;27.00;23.60
43987;DHT22;29650;47.378;8.300;2023-06-04T13:23:16;27.10;24.20
43987;DHT22;29650;47.378;8.300;2023-06-04T13:25:43;26.50;24.30
43987;DHT22;29650;47.378;8.300;2023-06-04T13:28:11;26.70;24.10
43987;DHT22;29650;47.378;8.300;2023-06-04T13:30:38;26.90;23.90
43987;DHT22;29650;47.378;8.300;2023-06-04T13:33:06;26.80;23.90
43987;DHT22;29650;47.378;8.300;2023-06-04T13:35:33;27.00;26.60
43987;DHT22;29650;47.378;8.300;2023-06-04T13:38:02;27.00;23.20
43987;DHT22;29650;47.378;8.300;2023-06-04T13:40:29;27.00;23.70
43987;DHT22;29650;47.378;8.300;2023-06-04T13:42:56;27.00;23.80
43987;DHT22;29650;47.378;8.300;2023-06-04T13:45:24;27.20;22.20
43987;DHT22;29650;47.378;8.300;2023-06-04T13:47:51;27.10;23.20
43987;DHT22;29650;47.378;8.300;2023-06-04T13:50:18;26.80;22.60
43987;DHT22;29650;47.378;8.300;2023-06-04T13:52:45;26.50;22.30
43987;DHT22;29650;47.378;8.300;2023-06-04T13:55:12;26.90;23.20
43987;DHT22;29650;47.378;8.300;2023-06-04T13:57:39;26.90;22.50
43987;DHT22;29650;47.378;8.300;2023-06-04T14:00:07;26.50;22.70
43987;DHT22;29650;47.378;8.300;2023-06-04T14:02:36;26.30;22.30
43987;DHT22;29650;47.378;8.300;2023-06-04T14:05:05;26.30;22.10
43987;DHT22;29650;47.378;8.300;2023-06-04T14:07:32;25.90;22.10
43987;DHT22;29650;47.378;8.300;2023-06-04T14:09:59;26.10;22.10
43987;DHT22;29650;47.378;8.300;2023-06-04T14:12:26;25.80;22.40
43987;DHT22;29650;47.378;8.300;2023-06-04T14:14:53;25.80;21.50
43987;DHT22;29650;47.378;8.300;2023-06-04T14:17:20;25.90;21.40
43987;DHT22;29650;47.378;8.300;2023-06-04T14:19:48;26.30;20.30
43987;DHT22;29650;47.378;8.300;2023-06-04T14:22:15;26.50;19.60
43987;DHT22;29650;47.378;8.300;2023-06-04T14:24:42;26.50;19.90
43987;DHT22;29650;47.378;8.300;2023-06-04T14:27:09;26.60;18.90
43987;DHT22;29650;47.378;8.300;2023-06-04T14:29:36;27.00;19.90
43987;DHT22;29650;47.378;8.300;2023-06-04T14:32:03;26.60;18.80
43987;DHT22;29650;47.378;8.300;2023-06-04T14:34:30;27.30;18.90
43987;DHT22;29650;47.378;8.300;2023-06-04T14:37:00;27.50;18.80
43987;DHT22;29650;47.378;8.300;2023-06-04T14:39:27;27.40;18.40
43987;DHT22;29650;47.378;8.300;2023-06-04T14:41:54;27.40;18.50
43987;DHT22;29650;47.378;8.300;2023-06-04T14:44:21;27.20;19.10
43987;DHT22;29650;47.378;8.300;2023-06-04T14:46:49;27.00;19.80
43987;DHT22;29650;47.378;8.300;2023-06-04T14:49:17;26.80;19.70
43987;DHT22;29650;47.378;8.300;2023-06-04T14:51:44;26.80;19.20
43987;DHT22;29650;47.378;8.300;2023-06-04T14:54:13;26.90;19.90
43987;DHT22;29650;47.378;8.300;2023-06-04T14:56:40;26.40;19.60
43987;DHT22;29650;47.378;8.300;2023-06-04T14:59:06;26.80;19.20
43987;DHT22;29650;47.378;8.300;2023-06-04T15:01:36;26.90;19.60
43987;DHT22;29650;47.378;8.300;2023-06-04T15:04:04;26.80;19.10
43987;DHT22;29650;47.378;8.300;2023-06-04T15:06:31;27.40;18.80
43987;DHT22;29650;47.378;8.300;2023-06-04T15:08:58;27.70;19.00
43987;DHT22;29650;47.378;8.300;2023-06-04T15:11:26;27.90;18.10
43987;DHT22;29650;47.378;8.300;2023-06-04T15:13:53;27.70;18.90
43987;DHT22;29650;47.378;8.300;2023-06-04T15:16:20;27.50;17.90
43987;DHT22;29650;47.378;8.300;2023-06-04T15:18:48;27.80;17.60
43987;DHT22;29650;47.378;8.300;2023-06-04T15:21:14;28.00;17.40
43987;DHT22;29650;47.378;8.300;2023-06-04T15:23:41;28.00;17.20
43987;DHT22;29650;47.378;8.300;2023-06-04T15:26:10;28.30;17.00
43987;DHT22;29650;47.378;8.300;2023-06-04T15:28:38;28.40;16.90
43987;DHT22;29650;47.378;8.300;2023-06-04T15:31:05;28.00;18.90
43987;DHT22;29650;47.378;8.300;2023-06-04T15:33:32;28.10;18.30
43987;DHT22;29650;47.378;8.300;2023-06-04T15:35:59;27.70;17.90